KMLF

Details ICAO KMLF
Name MILFORD MUNI BEN AND JUDY BRISCOE FLD
Region United States
Timezone America/Denver (UTC-7.0)
Plans Departing 2
Arriving 0
Stats Elevation 5,039 ft / 1,536 m (AMSL)
Location 38.426554° -113.013011°
Runways 1
Magnetic Variation 11.426° E
Sunrise 2017-12-11 14:40:52 UTC / 2017-12-11 07:40:52 Local
Sunset 2017-12-12 00:12:56 UTC / 2017-12-11 17:12:56 Local
Advertisement - Login to hide

Runways

ID Width Length Bearing (true) Bearing (mag) Surface Threshold Offset Overrun Length
16 75 ft / 23 m 5,010 ft / 1,527 m 180.00° 168.57° Asphalt 0 ft / 0 m 0 ft / 0 m
34 75 ft / 23 m 5,010 ft / 1,527 m 0.00° 348.57° Asphalt 0 ft / 0 m 0 ft / 0 m

Map

Weather


0- 5 10 15 20 25 30 35+ Temperature / ° C

Clouds and Precipitation
Forecast for 2017-12-12 00:00 UTC. Updated 2 hours ago

Ground ~20,000 ft ~40,000 ft Winds

METAR

KMLF 112252Z AUTO 01011KT 10SM CLR 06/M08 A3049 RMK AO2 SLP357 T00561083

TAF

Not found

Frequencies

Recorded 135.02 MHz ASOS
Unicom 122.80 MHz CTAF/UNICOM
Warning: Do not use this data for real-world aviation or navigation. No guarantee of current accuracy is given.